LEBZ/BJZ METAR and TAF weather

Enter ICAO airport designator
Station Type Date Time Source
LEBZ METAR 2019/08/22 05:00 UTC NOAA

LEBZ 220500Z 04001KT CAVOK 19/11 Q1016


Station Type Date Time Source
LEBZ Decoded METAR 2019/08/22 05:00 UTC NOAA

Station name not available
Aug 22, 2019 - 01:00 AM EDT / 2019.08.22 0500 UTC
Wind: from the NE (040 degrees) at 1 MPH (1 KT):0
Visibility: greater than 7 mile(s):0
Temperature: 66 F (19 C)
Dew Point: 51 F (11 C)
Relative Humidity: 59%
Pressure (altimeter): 30.00 in. Hg (1016 hPa)
ob: LEBZ 220500Z 04001KT CAVOK 19/11 Q1016
cycle: 5

Station Type Date Time Source
LEBZ TAF 2019/08/22 06:27 UTC NOAA

TAF LEBZ 220500Z 2206/2306 08006KT CAVOK TX37/2215Z TN19/2206Z PROB30
TEMPO 2213/2218 FEW040CB SCT050

Example: see airport list